sensor_id;sensor_type;location;lat;lon;timestamp;temperature;humidity
83660;SHT30;73632;50.808;3.422;2024-03-23T00:54:34;8.10;88.32
83660;SHT30;73632;50.808;3.422;2024-03-23T00:56:59;8.26;86.90
83660;SHT30;73632;50.808;3.422;2024-03-23T00:59:25;8.19;87.78
83660;SHT30;73632;50.808;3.422;2024-03-23T01:01:53;8.23;87.51
83660;SHT30;73632;50.808;3.422;2024-03-23T01:04:19;8.16;87.71
83660;SHT30;73632;50.808;3.422;2024-03-23T01:06:44;8.13;88.11
83660;SHT30;73632;50.808;3.422;2024-03-23T01:09:11;8.17;88.37
83660;SHT30;73632;50.808;3.422;2024-03-23T01:11:37;8.23;87.67
83660;SHT30;73632;50.808;3.422;2024-03-23T01:14:02;8.29;87.63
83660;SHT30;73632;50.808;3.422;2024-03-23T01:16:28;8.32;87.46
83660;SHT30;73632;50.808;3.422;2024-03-23T01:18:53;8.32;86.79
83660;SHT30;73632;50.808;3.422;2024-03-23T01:21:19;8.32;87.17
83660;SHT30;73632;50.808;3.422;2024-03-23T01:23:44;8.22;87.68
83660;SHT30;73632;50.808;3.422;2024-03-23T01:26:10;8.17;87.75
83660;SHT30;73632;50.808;3.422;2024-03-23T01:28:35;8.12;88.18
83660;SHT30;73632;50.808;3.422;2024-03-23T01:31:00;8.17;88.52
83660;SHT30;73632;50.808;3.422;2024-03-23T01:33:26;8.19;88.44
83660;SHT30;73632;50.808;3.422;2024-03-23T01:35:51;8.23;88.49
83660;SHT30;73632;50.808;3.422;2024-03-23T01:38:16;8.23;88.40
83660;SHT30;73632;50.808;3.422;2024-03-23T01:40:42;8.30;87.87
83660;SHT30;73632;50.808;3.422;2024-03-23T01:43:08;8.32;87.61
83660;SHT30;73632;50.808;3.422;2024-03-23T01:45:34;8.34;87.55
83660;SHT30;73632;50.808;3.422;2024-03-23T01:47:59;8.39;86.63
83660;SHT30;73632;50.808;3.422;2024-03-23T01:50:25;8.40;86.64
83660;SHT30;73632;50.808;3.422;2024-03-23T01:52:52;8.44;86.32
83660;SHT30;73632;50.808;3.422;2024-03-23T01:55:17;8.44;86.33
83660;SHT30;73632;50.808;3.422;2024-03-23T01:57:43;8.44;86.19
83660;SHT30;73632;50.808;3.422;2024-03-23T02:00:08;8.49;86.06
83660;SHT30;73632;50.808;3.422;2024-03-23T02:02:35;8.53;85.63
83660;SHT30;73632;50.808;3.422;2024-03-23T02:05:01;8.50;85.54
83660;SHT30;73632;50.808;3.422;2024-03-23T02:07:27;8.50;85.22
83660;SHT30;73632;50.808;3.422;2024-03-23T02:09:52;8.54;84.93
83660;SHT30;73632;50.808;3.422;2024-03-23T02:12:18;8.54;84.97
83660;SHT30;73632;50.808;3.422;2024-03-23T02:14:43;8.50;84.53
83660;SHT30;73632;50.808;3.422;2024-03-23T02:17:09;8.52;84.05
83660;SHT30;73632;50.808;3.422;2024-03-23T02:19:34;8.57;84.05
83660;SHT30;73632;50.808;3.422;2024-03-23T02:22:00;8.53;84.02
83660;SHT30;73632;50.808;3.422;2024-03-23T02:24:26;8.52;83.84
83660;SHT30;73632;50.808;3.422;2024-03-23T02:26:51;8.50;83.42
83660;SHT30;73632;50.808;3.422;2024-03-23T02:29:16;8.49;83.13
83660;SHT30;73632;50.808;3.422;2024-03-23T02:31:42;8.47;82.84
83660;SHT30;73632;50.808;3.422;2024-03-23T02:34:07;8.53;82.97
83660;SHT30;73632;50.808;3.422;2024-03-23T02:36:32;8.47;81.03
83660;SHT30;73632;50.808;3.422;2024-03-23T02:38:58;8.37;81.47
83660;SHT30;73632;50.808;3.422;2024-03-23T02:41:23;8.34;80.42
83660;SHT30;73632;50.808;3.422;2024-03-23T02:43:49;8.25;81.20
83660;SHT30;73632;50.808;3.422;2024-03-23T02:46:15;8.22;80.44
83660;SHT30;73632;50.808;3.422;2024-03-23T02:48:40;8.12;80.28
83660;SHT30;73632;50.808;3.422;2024-03-23T02:51:06;8.03;80.27
83660;SHT30;73632;50.808;3.422;2024-03-23T02:53:31;7.96;80.19
83660;SHT30;73632;50.808;3.422;2024-03-23T02:55:58;7.88;80.24
83660;SHT30;73632;50.808;3.422;2024-03-23T02:58:23;7.88;78.99
83660;SHT30;73632;50.808;3.422;2024-03-23T03:00:49;7.81;80.03
83660;SHT30;73632;50.808;3.422;2024-03-23T03:03:14;7.81;78.95
83660;SHT30;73632;50.808;3.422;2024-03-23T03:05:39;7.79;78.92
83660;SHT30;73632;50.808;3.422;2024-03-23T03:08:05;7.71;79.77
83660;SHT30;73632;50.808;3.422;2024-03-23T03:10:30;7.58;80.58
83660;SHT30;73632;50.808;3.422;2024-03-23T03:13:00;7.51;80.40
83660;SHT30;73632;50.808;3.422;2024-03-23T03:15:25;7.44;80.46
83660;SHT30;73632;50.808;3.422;2024-03-23T03:17:50;7.41;79.23
83660;SHT30;73632;50.808;3.422;2024-03-23T03:20:16;7.25;80.11
83660;SHT30;73632;50.808;3.422;2024-03-23T03:22:43;7.24;79.28
83660;SHT30;73632;50.808;3.422;2024-03-23T03:25:08;7.21;77.99
83660;SHT30;73632;50.808;3.422;2024-03-23T03:27:33;7.15;78.75
83660;SHT30;73632;50.808;3.422;2024-03-23T03:29:59;7.17;78.22
83660;SHT30;73632;50.808;3.422;2024-03-23T03:32:29;7.14;78.82
83660;SHT30;73632;50.808;3.422;2024-03-23T03:34:54;7.11;79.71
83660;SHT30;73632;50.808;3.422;2024-03-23T03:37:19;7.13;79.24
83660;SHT30;73632;50.808;3.422;2024-03-23T03:39:45;7.20;79.60
83660;SHT30;73632;50.808;3.422;2024-03-23T03:42:10;7.27;78.68
83660;SHT30;73632;50.808;3.422;2024-03-23T03:44:36;7.32;79.07
83660;SHT30;73632;50.808;3.422;2024-03-23T03:47:02;7.41;78.82
83660;SHT30;73632;50.808;3.422;2024-03-23T03:49:30;7.31;79.75
83660;SHT30;73632;50.808;3.422;2024-03-23T03:51:55;7.35;78.82
83660;SHT30;73632;50.808;3.422;2024-03-23T03:54:21;7.34;79.38
83660;SHT30;73632;50.808;3.422;2024-03-23T03:56:46;7.38;79.76
83660;SHT30;73632;50.808;3.422;2024-03-23T03:59:12;7.35;79.40
83660;SHT30;73632;50.808;3.422;2024-03-23T04:01:37;7.34;79.91
83660;SHT30;73632;50.808;3.422;2024-03-23T04:04:02;7.37;80.08
83660;SHT30;73632;50.808;3.422;2024-03-23T04:06:28;7.34;79.73
83660;SHT30;73632;50.808;3.422;2024-03-23T04:08:53;7.31;79.58
83660;SHT30;73632;50.808;3.422;2024-03-23T04:11:19;7.27;80.78
83660;SHT30;73632;50.808;3.422;2024-03-23T04:13:44;7.13;80.71
83660;SHT30;73632;50.808;3.422;2024-03-23T04:16:10;7.08;80.36
83660;SHT30;73632;50.808;3.422;2024-03-23T04:18:35;7.10;80.57
83660;SHT30;73632;50.808;3.422;2024-03-23T04:21:01;6.96;80.71
83660;SHT30;73632;50.808;3.422;2024-03-23T04:23:26;6.89;80.79
83660;SHT30;73632;50.808;3.422;2024-03-23T04:25:51;6.96;81.29
83660;SHT30;73632;50.808;3.422;2024-03-23T04:28:18;6.96;81.19
83660;SHT30;73632;50.808;3.422;2024-03-23T04:30:44;6.89;80.75
83660;SHT30;73632;50.808;3.422;2024-03-23T04:33:09;6.83;81.05
83660;SHT30;73632;50.808;3.422;2024-03-23T04:35:35;6.86;80.86
83660;SHT30;73632;50.808;3.422;2024-03-23T04:38:01;6.86;80.93
83660;SHT30;73632;50.808;3.422;2024-03-23T04:40:26;6.93;80.72
83660;SHT30;73632;50.808;3.422;2024-03-23T04:42:51;6.90;80.67
83660;SHT30;73632;50.808;3.422;2024-03-23T04:45:17;6.91;81.10
83660;SHT30;73632;50.808;3.422;2024-03-23T04:47:42;6.77;80.95
83660;SHT30;73632;50.808;3.422;2024-03-23T04:50:08;6.80;80.55
83660;SHT30;73632;50.808;3.422;2024-03-23T04:52:35;6.77;80.52
83660;SHT30;73632;50.808;3.422;2024-03-23T04:55:01;6.69;81.05
83660;SHT30;73632;50.808;3.422;2024-03-23T04:57:26;6.73;80.43
83660;SHT30;73632;50.808;3.422;2024-03-23T04:59:52;6.63;81.31
83660;SHT30;73632;50.808;3.422;2024-03-23T05:02:17;6.59;80.66
83660;SHT30;73632;50.808;3.422;2024-03-23T05:04:42;6.48;81.77
83660;SHT30;73632;50.808;3.422;2024-03-23T05:07:08;6.32;81.76
83660;SHT30;73632;50.808;3.422;2024-03-23T05:09:33;6.33;81.36
83660;SHT30;73632;50.808;3.422;2024-03-23T05:11:59;6.29;80.86
83660;SHT30;73632;50.808;3.422;2024-03-23T05:14:27;6.30;80.50
83660;SHT30;73632;50.808;3.422;2024-03-23T05:16:53;6.35;80.51
83660;SHT30;73632;50.808;3.422;2024-03-23T05:19:19;6.28;80.64
83660;SHT30;73632;50.808;3.422;2024-03-23T05:21:44;6.30;80.71
83660;SHT30;73632;50.808;3.422;2024-03-23T05:24:11;6.28;80.64
83660;SHT30;73632;50.808;3.422;2024-03-23T05:26:37;6.16;81.04
83660;SHT30;73632;50.808;3.422;2024-03-23T05:29:02;6.14;80.93
83660;SHT30;73632;50.808;3.422;2024-03-23T05:31:30;6.11;81.27
83660;SHT30;73632;50.808;3.422;2024-03-23T05:33:55;6.06;81.28
83660;SHT30;73632;50.808;3.422;2024-03-23T05:36:21;6.12;80.88
83660;SHT30;73632;50.808;3.422;2024-03-23T05:38:47;6.08;81.52
83660;SHT30;73632;50.808;3.422;2024-03-23T05:41:12;6.14;80.99
83660;SHT30;73632;50.808;3.422;2024-03-23T05:43:38;6.09;81.20
83660;SHT30;73632;50.808;3.422;2024-03-23T05:46:03;5.99;81.38
83660;SHT30;73632;50.808;3.422;2024-03-23T05:48:33;5.97;81.32
83660;SHT30;73632;50.808;3.422;2024-03-23T05:50:58;5.99;81.47
83660;SHT30;73632;50.808;3.422;2024-03-23T05:53:24;6.02;81.26
83660;SHT30;73632;50.808;3.422;2024-03-23T05:55:51;6.09;81.64
83660;SHT30;73632;50.808;3.422;2024-03-23T05:58:19;6.11;81.20
83660;SHT30;73632;50.808;3.422;2024-03-23T06:00:45;6.12;80.94
83660;SHT30;73632;50.808;3.422;2024-03-23T06:03:10;6.04;81.39
83660;SHT30;73632;50.808;3.422;2024-03-23T06:05:37;6.04;81.10
83660;SHT30;73632;50.808;3.422;2024-03-23T06:08:03;5.99;80.98
83660;SHT30;73632;50.808;3.422;2024-03-23T06:10:28;6.06;80.95
83660;SHT30;73632;50.808;3.422;2024-03-23T06:12:53;6.14;80.77
83660;SHT30;73632;50.808;3.422;2024-03-23T06:15:19;6.02;81.03
83660;SHT30;73632;50.808;3.422;2024-03-23T06:17:45;6.08;80.73
83660;SHT30;73632;50.808;3.422;2024-03-23T06:20:10;5.95;81.06
83660;SHT30;73632;50.808;3.422;2024-03-23T06:22:36;6.08;81.14
83660;SHT30;73632;50.808;3.422;2024-03-23T06:25:02;6.46;79.91
83660;SHT30;73632;50.808;3.422;2024-03-23T06:27:27;6.60;79.25
83660;SHT30;73632;50.808;3.422;2024-03-23T06:29:53;6.75;79.01
83660;SHT30;73632;50.808;3.422;2024-03-23T06:32:18;6.65;79.39
83660;SHT30;73632;50.808;3.422;2024-03-23T06:34:44;6.99;78.30
83660;SHT30;73632;50.808;3.422;2024-03-23T06:37:10;7.37;76.69
83660;SHT30;73632;50.808;3.422;2024-03-23T06:39:36;7.28;76.92
83660;SHT30;73632;50.808;3.422;2024-03-23T06:42:02;7.31;76.37
83660;SHT30;73632;50.808;3.422;2024-03-23T06:44:28;7.34;76.82
83660;SHT30;73632;50.808;3.422;2024-03-23T06:46:53;7.89;75.25
83660;SHT30;73632;50.808;3.422;2024-03-23T06:49:18;8.36;74.24
83660;SHT30;73632;50.808;3.422;2024-03-23T06:51:45;8.87;72.79
83660;SHT30;73632;50.808;3.422;2024-03-23T06:54:10;9.29;71.72
83660;SHT30;73632;50.808;3.422;2024-03-23T06:56:36;9.85;69.83
83660;SHT30;73632;50.808;3.422;2024-03-23T06:59:01;10.30;68.34
83660;SHT30;73632;50.808;3.422;2024-03-23T07:01:27;10.68;67.54
83660;SHT30;73632;50.808;3.422;2024-03-23T07:03:53;11.09;66.51
83660;SHT30;73632;50.808;3.422;2024-03-23T07:06:19;11.12;65.49
83660;SHT30;73632;50.808;3.422;2024-03-23T07:08:44;10.78;67.09
83660;SHT30;73632;50.808;3.422;2024-03-23T07:11:09;10.29;67.83
83660;SHT30;73632;50.808;3.422;2024-03-23T07:13:35;9.86;69.72
83660;SHT30;73632;50.808;3.422;2024-03-23T07:16:00;9.42;70.07
83660;SHT30;73632;50.808;3.422;2024-03-23T07:18:26;9.38;70.14
83660;SHT30;73632;50.808;3.422;2024-03-23T07:20:58;10.51;68.32
83660;SHT30;73632;50.808;3.422;2024-03-23T07:23:24;11.29;64.79
83660;SHT30;73632;50.808;3.422;2024-03-23T07:26:00;11.96;63.04
83660;SHT30;73632;50.808;3.422;2024-03-23T07:28:25;12.27;61.45
83660;SHT30;73632;50.808;3.422;2024-03-23T07:31:06;12.95;59.54
83660;SHT30;73632;50.808;3.422;2024-03-23T07:33:32;13.64;59.79
83660;SHT30;73632;50.808;3.422;2024-03-23T07:35:58;13.74;57.62
83660;SHT30;73632;50.808;3.422;2024-03-23T07:38:26;13.52;58.12
83660;SHT30;73632;50.808;3.422;2024-03-23T07:40:52;13.42;59.01
83660;SHT30;73632;50.808;3.422;2024-03-23T07:43:24;14.06;57.00
83660;SHT30;73632;50.808;3.422;2024-03-23T07:45:52;13.94;57.22
83660;SHT30;73632;50.808;3.422;2024-03-23T07:48:18;14.11;56.17
83660;SHT30;73632;50.808;3.422;2024-03-23T07:50:43;14.76;56.93
83660;SHT30;73632;50.808;3.422;2024-03-23T07:53:09;15.29;53.71
83660;SHT30;73632;50.808;3.422;2024-03-23T07:55:34;15.44;53.17
83660;SHT30;73632;50.808;3.422;2024-03-23T07:57:59;15.67;53.45
83660;SHT30;73632;50.808;3.422;2024-03-23T08:00:25;16.05;51.18
83660;SHT30;73632;50.808;3.422;2024-03-23T08:02:51;16.17;50.59
83660;SHT30;73632;50.808;3.422;2024-03-23T08:05:16;16.35;50.82
83660;SHT30;73632;50.808;3.422;2024-03-23T08:07:42;16.55;50.39
83660;SHT30;73632;50.808;3.422;2024-03-23T08:10:07;16.79;48.59
83660;SHT30;73632;50.808;3.422;2024-03-23T08:12:32;16.53;49.39
83660;SHT30;73632;50.808;3.422;2024-03-23T08:14:58;16.62;49.78
83660;SHT30;73632;50.808;3.422;2024-03-23T08:17:23;16.29;49.52
83660;SHT30;73632;50.808;3.422;2024-03-23T08:19:48;16.38;49.27
83660;SHT30;73632;50.808;3.422;2024-03-23T08:22:14;15.54;49.10
83660;SHT30;73632;50.808;3.422;2024-03-23T08:24:39;15.44;51.18
83660;SHT30;73632;50.808;3.422;2024-03-23T08:27:05;14.89;52.41
83660;SHT30;73632;50.808;3.422;2024-03-23T08:29:30;14.92;51.31
83660;SHT30;73632;50.808;3.422;2024-03-23T08:31:55;14.76;53.14
83660;SHT30;73632;50.808;3.422;2024-03-23T08:34:21;15.15;51.15
83660;SHT30;73632;50.808;3.422;2024-03-23T08:36:46;13.93;55.09
83660;SHT30;73632;50.808;3.422;2024-03-23T08:39:11;14.03;55.84
83660;SHT30;73632;50.808;3.422;2024-03-23T08:41:37;15.73;50.90
83660;SHT30;73632;50.808;3.422;2024-03-23T08:44:02;15.24;51.49
83660;SHT30;73632;50.808;3.422;2024-03-23T08:46:27;15.05;51.09
83660;SHT30;73632;50.808;3.422;2024-03-23T08:48:53;14.79;52.01
83660;SHT30;73632;50.808;3.422;2024-03-23T08:51:18;13.96;53.36
83660;SHT30;73632;50.808;3.422;2024-03-23T08:53:44;13.74;54.16
83660;SHT30;73632;50.808;3.422;2024-03-23T08:56:10;14.82;54.27
83660;SHT30;73632;50.808;3.422;2024-03-23T08:58:37;15.00;55.01
83660;SHT30;73632;50.808;3.422;2024-03-23T09:01:07;14.54;52.06
83660;SHT30;73632;50.808;3.422;2024-03-23T09:03:33;15.81;50.81
83660;SHT30;73632;50.808;3.422;2024-03-23T09:05:59;16.40;48.96
83660;SHT30;73632;50.808;3.422;2024-03-23T09:08:25;16.48;48.14
83660;SHT30;73632;50.808;3.422;2024-03-23T09:10:52;16.29;46.71
83660;SHT30;73632;50.808;3.422;2024-03-23T09:13:17;15.93;48.13
83660;SHT30;73632;50.808;3.422;2024-03-23T09:15:47;15.43;48.76
83660;SHT30;73632;50.808;3.422;2024-03-23T09:18:13;16.15;47.61
83660;SHT30;73632;50.808;3.422;2024-03-23T09:20:39;15.83;47.45
83660;SHT30;73632;50.808;3.422;2024-03-23T09:23:04;15.66;48.21
83660;SHT30;73632;50.808;3.422;2024-03-23T09:25:29;16.35;46.53
83660;SHT30;73632;50.808;3.422;2024-03-23T09:27:55;17.02;45.97
83660;SHT30;73632;50.808;3.422;2024-03-23T09:30:20;14.98;47.78
83660;SHT30;73632;50.808;3.422;2024-03-23T09:32:46;15.12;48.70
83660;SHT30;73632;50.808;3.422;2024-03-23T09:35:12;15.39;47.36
83660;SHT30;73632;50.808;3.422;2024-03-23T09:37:40;15.13;49.37
83660;SHT30;73632;50.808;3.422;2024-03-23T09:40:12;15.73;47.36
83660;SHT30;73632;50.808;3.422;2024-03-23T09:42:38;15.84;45.44
83660;SHT30;73632;50.808;3.422;2024-03-23T09:45:13;16.22;46.15
83660;SHT30;73632;50.808;3.422;2024-03-23T09:47:41;15.42;46.90
83660;SHT30;73632;50.808;3.422;2024-03-23T09:50:07;16.20;46.11
83660;SHT30;73632;50.808;3.422;2024-03-23T09:52:33;16.42;43.69
83660;SHT30;73632;50.808;3.422;2024-03-23T09:54:58;16.52;44.00
83660;SHT30;73632;50.808;3.422;2024-03-23T09:57:23;16.44;45.04
83660;SHT30;73632;50.808;3.422;2024-03-23T09:59:49;16.58;44.42
83660;SHT30;73632;50.808;3.422;2024-03-23T10:02:15;17.28;44.69
83660;SHT30;73632;50.808;3.422;2024-03-23T10:04:42;16.40;43.95
83660;SHT30;73632;50.808;3.422;2024-03-23T10:09:38;17.38;41.90
83660;SHT30;73632;50.808;3.422;2024-03-23T10:12:17;17.51;40.03
83660;SHT30;73632;50.808;3.422;2024-03-23T10:14:43;17.20;40.12
83660;SHT30;73632;50.808;3.422;2024-03-23T10:17:16;15.56;43.52
83660;SHT30;73632;50.808;3.422;2024-03-23T10:19:46;14.85;46.15
83660;SHT30;73632;50.808;3.422;2024-03-23T10:22:14;13.01;49.27
83660;SHT30;73632;50.808;3.422;2024-03-23T10:24:41;12.87;51.23
83660;SHT30;73632;50.808;3.422;2024-03-23T10:27:07;12.21;52.76
83660;SHT30;73632;50.808;3.422;2024-03-23T10:29:32;11.86;53.37
83660;SHT30;73632;50.808;3.422;2024-03-23T10:32:18;12.38;53.42
83660;SHT30;73632;50.808;3.422;2024-03-23T10:34:44;12.08;53.44
83660;SHT30;73632;50.808;3.422;2024-03-23T10:37:10;11.70;54.54
83660;SHT30;73632;50.808;3.422;2024-03-23T10:39:37;11.66;54.30
83660;SHT30;73632;50.808;3.422;2024-03-23T10:42:07;11.70;52.37
83660;SHT30;73632;50.808;3.422;2024-03-23T10:44:34;11.66;53.91
83660;SHT30;73632;50.808;3.422;2024-03-23T10:47:01;12.00;54.35
83660;SHT30;73632;50.808;3.422;2024-03-23T10:49:28;12.38;54.97
83660;SHT30;73632;50.808;3.422;2024-03-23T10:51:58;12.68;53.23
83660;SHT30;73632;50.808;3.422;2024-03-23T10:54:25;12.18;52.97
83660;SHT30;73632;50.808;3.422;2024-03-23T10:56:57;12.52;52.95
83660;SHT30;73632;50.808;3.422;2024-03-23T10:59:23;12.16;49.73
83660;SHT30;73632;50.808;3.422;2024-03-23T11:01:56;11.90;51.26
83660;SHT30;73632;50.808;3.422;2024-03-23T11:04:36;11.36;49.95
83660;SHT30;73632;50.808;3.422;2024-03-23T11:09:49;11.35;56.54
83660;SHT30;73632;50.808;3.422;2024-03-23T11:15:06;12.17;52.84
83660;SHT30;73632;50.808;3.422;2024-03-23T11:17:36;11.51;53.92
83660;SHT30;73632;50.808;3.422;2024-03-23T11:20:05;11.22;56.27
83660;SHT30;73632;50.808;3.422;2024-03-23T11:25:15;11.46;56.31
83660;SHT30;73632;50.808;3.422;2024-03-23T11:27:43;11.05;56.29
83660;SHT30;73632;50.808;3.422;2024-03-23T11:30:15;10.74;57.19
83660;SHT30;73632;50.808;3.422;2024-03-23T11:32:42;10.53;58.81
83660;SHT30;73632;50.808;3.422;2024-03-23T11:35:08;10.33;60.29
83660;SHT30;73632;50.808;3.422;2024-03-23T11:37:36;10.47;58.15
83660;SHT30;73632;50.808;3.422;2024-03-23T11:40:16;10.43;59.83
83660;SHT30;73632;50.808;3.422;2024-03-23T11:42:42;10.40;59.75
83660;SHT30;73632;50.808;3.422;2024-03-23T11:45:08;10.14;61.17
83660;SHT30;73632;50.808;3.422;2024-03-23T11:47:34;10.12;62.19
83660;SHT30;73632;50.808;3.422;2024-03-23T11:49:59;10.00;61.97
83660;SHT30;73632;50.808;3.422;2024-03-23T11:52:25;9.90;62.34
83660;SHT30;73632;50.808;3.422;2024-03-23T11:54:50;9.76;64.13
83660;SHT30;73632;50.808;3.422;2024-03-23T11:57:16;9.65;63.30
83660;SHT30;73632;50.808;3.422;2024-03-23T11:59:41;9.62;65.52
83660;SHT30;73632;50.808;3.422;2024-03-23T12:02:10;9.87;67.13
83660;SHT30;73632;50.808;3.422;2024-03-23T12:04:39;10.07;68.75
83660;SHT30;73632;50.808;3.422;2024-03-23T12:07:16;10.23;65.42
83660;SHT30;73632;50.808;3.422;2024-03-23T12:09:44;10.14;67.87
83660;SHT30;73632;50.808;3.422;2024-03-23T12:12:15;10.21;63.43
83660;SHT30;73632;50.808;3.422;2024-03-23T12:14:42;10.14;65.65
83660;SHT30;73632;50.808;3.422;2024-03-23T12:17:13;10.27;62.31
83660;SHT30;73632;50.808;3.422;2024-03-23T12:19:39;10.12;62.48
83660;SHT30;73632;50.808;3.422;2024-03-23T12:22:05;9.93;62.49
83660;SHT30;73632;50.808;3.422;2024-03-23T12:24:32;10.06;60.63
83660;SHT30;73632;50.808;3.422;2024-03-23T12:27:00;9.99;63.27
83660;SHT30;73632;50.808;3.422;2024-03-23T12:29:28;10.06;62.30
83660;SHT30;73632;50.808;3.422;2024-03-23T12:31:53;9.92;63.05
83660;SHT30;73632;50.808;3.422;2024-03-23T12:34:19;9.93;64.37
83660;SHT30;73632;50.808;3.422;2024-03-23T12:36:44;9.56;64.51
83660;SHT30;73632;50.808;3.422;2024-03-23T12:39:09;9.52;65.37
83660;SHT30;73632;50.808;3.422;2024-03-23T12:41:35;9.55;65.21
83660;SHT30;73632;50.808;3.422;2024-03-23T12:44:00;9.36;66.60
83660;SHT30;73632;50.808;3.422;2024-03-23T12:46:26;9.31;67.01
83660;SHT30;73632;50.808;3.422;2024-03-23T12:48:51;9.22;66.11
83660;SHT30;73632;50.808;3.422;2024-03-23T12:51:17;9.28;67.37
83660;SHT30;73632;50.808;3.422;2024-03-23T12:53:42;9.24;67.19
83660;SHT30;73632;50.808;3.422;2024-03-23T12:56:11;9.15;67.87
83660;SHT30;73632;50.808;3.422;2024-03-23T12:58:37;9.18;68.21
83660;SHT30;73632;50.808;3.422;2024-03-23T13:01:02;9.19;69.48
83660;SHT30;73632;50.808;3.422;2024-03-23T13:03:28;9.32;67.44
83660;SHT30;73632;50.808;3.422;2024-03-23T13:05:53;9.35;66.70
83660;SHT30;73632;50.808;3.422;2024-03-23T13:08:19;9.34;65.67
83660;SHT30;73632;50.808;3.422;2024-03-23T13:10:44;9.36;66.08
83660;SHT30;73632;50.808;3.422;2024-03-23T13:13:10;9.72;66.02
83660;SHT30;73632;50.808;3.422;2024-03-23T13:15:35;9.96;66.54
83660;SHT30;73632;50.808;3.422;2024-03-23T13:18:00;10.10;67.14
83660;SHT30;73632;50.808;3.422;2024-03-23T13:20:26;10.34;66.59
83660;SHT30;73632;50.808;3.422;2024-03-23T13:22:51;10.63;64.88
83660;SHT30;73632;50.808;3.422;2024-03-23T13:25:17;10.87;64.73
83660;SHT30;73632;50.808;3.422;2024-03-23T13:27:44;10.87;65.33
83660;SHT30;73632;50.808;3.422;2024-03-23T13:30:10;10.99;64.13
83660;SHT30;73632;50.808;3.422;2024-03-23T13:32:35;11.25;61.82
83660;SHT30;73632;50.808;3.422;2024-03-23T13:35:01;11.70;61.67
83660;SHT30;73632;50.808;3.422;2024-03-23T13:37:26;12.08;59.28
83660;SHT30;73632;50.808;3.422;2024-03-23T13:39:52;12.07;53.59
83660;SHT30;73632;50.808;3.422;2024-03-23T13:42:17;11.97;56.45
83660;SHT30;73632;50.808;3.422;2024-03-23T13:44:43;11.98;54.97
83660;SHT30;73632;50.808;3.422;2024-03-23T13:47:08;11.84;53.24
83660;SHT30;73632;50.808;3.422;2024-03-23T13:49:33;11.93;55.67
83660;SHT30;73632;50.808;3.422;2024-03-23T13:52:00;11.86;54.37
83660;SHT30;73632;50.808;3.422;2024-03-23T13:54:26;11.59;53.92
83660;SHT30;73632;50.808;3.422;2024-03-23T13:56:52;11.19;53.40
83660;SHT30;73632;50.808;3.422;2024-03-23T13:59:18;11.07;55.14
83660;SHT30;73632;50.808;3.422;2024-03-23T14:01:44;11.14;57.56
83660;SHT30;73632;50.808;3.422;2024-03-23T14:04:11;11.39;57.20
83660;SHT30;73632;50.808;3.422;2024-03-23T14:06:36;11.39;54.81
83660;SHT30;73632;50.808;3.422;2024-03-23T14:09:02;11.63;55.93
83660;SHT30;73632;50.808;3.422;2024-03-23T14:11:29;11.59;55.06
83660;SHT30;73632;50.808;3.422;2024-03-23T14:13:55;11.66;55.10
83660;SHT30;73632;50.808;3.422;2024-03-23T14:16:20;11.63;53.16
83660;SHT30;73632;50.808;3.422;2024-03-23T14:18:49;11.67;55.17
83660;SHT30;73632;50.808;3.422;2024-03-23T14:21:14;11.73;56.08
83660;SHT30;73632;50.808;3.422;2024-03-23T14:23:39;11.79;55.12
83660;SHT30;73632;50.808;3.422;2024-03-23T14:26:08;11.58;54.28
83660;SHT30;73632;50.808;3.422;2024-03-23T14:28:34;11.42;56.08
83660;SHT30;73632;50.808;3.422;2024-03-23T14:31:00;11.42;55.10
83660;SHT30;73632;50.808;3.422;2024-03-23T14:33:26;11.28;52.80
83660;SHT30;73632;50.808;3.422;2024-03-23T14:35:52;10.97;52.39
83660;SHT30;73632;50.808;3.422;2024-03-23T14:38:21;10.97;51.71
83660;SHT30;73632;50.808;3.422;2024-03-23T14:40:46;10.89;53.25
83660;SHT30;73632;50.808;3.422;2024-03-23T14:43:12;10.92;53.82
83660;SHT30;73632;50.808;3.422;2024-03-23T14:46:05;10.77;54.03
83660;SHT30;73632;50.808;3.422;2024-03-23T14:48:31;10.78;54.34
83660;SHT30;73632;50.808;3.422;2024-03-23T14:50:58;10.88;55.72
83660;SHT30;73632;50.808;3.422;2024-03-23T14:53:24;10.97;54.21
83660;SHT30;73632;50.808;3.422;2024-03-23T14:55:50;11.08;52.21
83660;SHT30;73632;50.808;3.422;2024-03-23T14:58:15;10.88;53.12
83660;SHT30;73632;50.808;3.422;2024-03-23T15:00:41;10.75;56.50
83660;SHT30;73632;50.808;3.422;2024-03-23T15:03:06;10.75;55.73
83660;SHT30;73632;50.808;3.422;2024-03-23T15:05:32;10.79;55.19
83660;SHT30;73632;50.808;3.422;2024-03-23T15:07:57;10.84;54.91
83660;SHT30;73632;50.808;3.422;2024-03-23T15:10:23;11.11;54.37
83660;SHT30;73632;50.808;3.422;2024-03-23T15:12:49;11.22;52.78
83660;SHT30;73632;50.808;3.422;2024-03-23T15:15:14;11.12;52.99
83660;SHT30;73632;50.808;3.422;2024-03-23T15:17:40;11.08;52.75
83660;SHT30;73632;50.808;3.422;2024-03-23T15:20:10;11.15;53.10
83660;SHT30;73632;50.808;3.422;2024-03-23T15:22:37;11.11;54.42
83660;SHT30;73632;50.808;3.422;2024-03-23T15:25:02;11.09;54.32
83660;SHT30;73632;50.808;3.422;2024-03-23T15:27:28;11.02;53.50
83660;SHT30;73632;50.808;3.422;2024-03-23T15:29:55;10.98;52.69
83660;SHT30;73632;50.808;3.422;2024-03-23T15:32:21;11.08;52.16
83660;SHT30;73632;50.808;3.422;2024-03-23T15:34:47;11.12;52.44
83660;SHT30;73632;50.808;3.422;2024-03-23T15:37:12;11.14;52.56
83660;SHT30;73632;50.808;3.422;2024-03-23T15:39:37;11.02;52.92
83660;SHT30;73632;50.808;3.422;2024-03-23T15:42:03;10.98;53.24
83660;SHT30;73632;50.808;3.422;2024-03-23T15:44:29;10.89;53.94
83660;SHT30;73632;50.808;3.422;2024-03-23T15:46:55;10.92;52.63
83660;SHT30;73632;50.808;3.422;2024-03-23T15:49:20;10.92;54.41
83660;SHT30;73632;50.808;3.422;2024-03-23T15:51:45;11.08;53.68
83660;SHT30;73632;50.808;3.422;2024-03-23T15:54:11;11.18;54.46
83660;SHT30;73632;50.808;3.422;2024-03-23T15:56:36;11.22;54.80
83660;SHT30;73632;50.808;3.422;2024-03-23T15:59:03;11.16;53.19
83660;SHT30;73632;50.808;3.422;2024-03-23T16:01:32;11.04;54.36
83660;SHT30;73632;50.808;3.422;2024-03-23T16:04:02;10.87;54.63
83660;SHT30;73632;50.808;3.422;2024-03-23T16:06:28;10.68;54.99
83660;SHT30;73632;50.808;3.422;2024-03-23T16:08:53;10.69;55.53
83660;SHT30;73632;50.808;3.422;2024-03-23T16:11:19;10.71;56.50
83660;SHT30;73632;50.808;3.422;2024-03-23T16:13:45;10.60;56.35
83660;SHT30;73632;50.808;3.422;2024-03-23T16:16:12;10.64;57.60
83660;SHT30;73632;50.808;3.422;2024-03-23T16:18:38;10.81;56.95
83660;SHT30;73632;50.808;3.422;2024-03-23T16:21:06;10.74;58.32
83660;SHT30;73632;50.808;3.422;2024-03-23T16:23:33;10.74;57.95
83660;SHT30;73632;50.808;3.422;2024-03-23T16:25:58;10.58;58.12
83660;SHT30;73632;50.808;3.422;2024-03-23T16:28:27;10.63;58.93
83660;SHT30;73632;50.808;3.422;2024-03-23T16:30:59;10.74;60.00
83660;SHT30;73632;50.808;3.422;2024-03-23T16:33:26;10.72;58.41
83660;SHT30;73632;50.808;3.422;2024-03-23T16:36:11;10.68;59.15